Time;durP1;ratioP1;P1;durP2;ratioP2;P2;SDS_P1;SDS_P2;PMS_P1;PMS_P2;Temp;Humidity;BMP_temperature;BMP_pressure;BME280_temperature;BME280_humidity;BME280_pressure;Samples;Min_cycle;Max_cycle;Signal;HPM_P1;HPM_P2
2023/03/20 00:08:46;;;;;;;46.03;28.27;;;;;;;8.80;55.26;100133.09;30625785;28;96821;-64
2023/03/20 00:23:47;;;;;;;44.63;25.17;;;;;;;8.71;55.95;100128.75;30624045;28;96994;-62
2023/03/20 00:38:47;;;;;;;36.40;22.60;;;;;;;8.87;56.67;100121.81;30623493;28;97431;-62
2023/03/20 00:53:47;;;;;;;33.58;21.02;;;;;;;9.12;57.35;100125.41;30620585;28;96775;-66
2023/03/20 01:08:48;;;;;;;31.77;19.02;;;;;;;9.19;57.40;100120.28;30620559;28;96982;-65
2023/03/20 01:23:48;;;;;;;29.77;18.50;;;;;;;9.25;58.57;100119.59;30618055;28;97924;-63
2023/03/20 01:38:55;;;;;;;28.95;18.27;;;;;;;9.28;59.40;100125.44;30617548;28;96678;-64
2023/03/20 01:54:22;;;;;;;27.37;18.60;;;;;;;9.21;60.61;100135.03;30614769;28;97111;-63
2023/03/20 02:09:22;;;;;;;30.63;18.33;;;;;;;9.11;62.58;100129.03;30611588;28;97145;-64
2023/03/20 02:24:48;;;;;;;28.08;17.77;;;;;;;9.18;63.59;100129.22;30612803;28;97233;-63
2023/03/20 02:40:00;;;;;;;28.00;18.77;;;;;;;9.18;65.14;100127.38;30612297;28;97363;-63
2023/03/20 02:55:34;;;;;;;28.43;18.30;;;;;;;9.00;66.30;100124.03;30610908;28;96689;-64
2023/03/20 03:10:40;;;;;;;27.23;17.60;;;;;;;8.87;67.75;100122.66;30608169;28;97077;-65
2023/03/20 03:25:41;;;;;;;23.50;15.57;;;;;;;8.92;68.61;100117.69;30628090;28;97841;-61
2023/03/20 03:41:14;;;;;;;20.70;14.90;;;;;;;9.04;69.18;100117.41;30627785;28;97136;-62
2023/03/20 03:56:20;;;;;;;20.17;13.20;;;;;;;9.00;69.49;100111.56;30622184;28;97619;-63
2023/03/20 04:11:23;;;;;;;23.90;16.53;;;;;;;8.92;70.40;100123.00;30625680;28;96875;-64
2023/03/20 04:26:23;;;;;;;24.97;16.87;;;;;;;8.79;71.28;100128.78;30622709;28;96604;-65
2023/03/20 04:41:25;;;;;;;21.00;14.97;;;;;;;8.75;71.98;100131.94;30619728;28;97448;-62
2023/03/20 04:56:25;;;;;;;22.23;15.13;;;;;;;8.76;72.49;100144.19;30620491;28;96875;-65
2023/03/20 05:11:27;;;;;;;18.73;13.15;;;;;;;8.80;72.96;100143.72;30619399;28;96626;-63
2023/03/20 05:26:27;;;;;;;22.17;14.40;;;;;;;8.91;73.83;100142.63;30617604;28;96841;-63
2023/03/20 05:41:27;;;;;;;17.92;13.57;;;;;;;9.15;74.37;100157.78;30602236;28;98079;-62
2023/03/20 05:56:28;;;;;;;19.08;12.68;;;;;;;9.27;73.81;100166.28;30587802;28;96717;-64
2023/03/20 06:11:28;;;;;;;15.88;11.18;;;;;;;9.61;74.33;100168.03;30586860;28;97284;-63
2023/03/20 06:26:29;;;;;;;16.85;11.98;;;;;;;9.77;74.28;100175.19;30586252;28;97613;-64
2023/03/20 06:41:29;;;;;;;16.33;11.80;;;;;;;10.11;74.40;100190.13;30587386;28;97303;-64
2023/03/20 06:56:31;;;;;;;15.13;11.70;;;;;;;10.20;74.05;100195.47;30582515;28;96878;-62
2023/03/20 07:11:31;;;;;;;18.47;12.87;;;;;;;10.08;74.35;100187.81;30583659;28;98681;-63
2023/03/20 07:26:32;;;;;;;18.33;13.00;;;;;;;10.11;74.43;100195.47;30586960;28;97952;-63
2023/03/20 07:41:32;;;;;;;19.10;13.98;;;;;;;10.32;74.50;100199.47;30580914;28;98211;-65
2023/03/20 07:56:33;;;;;;;17.23;12.80;;;;;;;10.73;73.75;100215.41;30614934;28;97103;-64
2023/03/20 08:11:33;;;;;;;19.80;12.93;;;;;;;10.87;73.59;100227.19;30632555;28;96713;-64
2023/03/20 08:26:34;;;;;;;21.00;14.13;;;;;;;10.85;73.12;100221.19;30622448;28;96715;-64
2023/03/20 08:41:37;;;;;;;24.80;15.32;;;;;;;10.76;71.80;100233.69;30625477;28;97015;-65
2023/03/20 08:56:38;;;;;;;19.53;14.33;;;;;;;10.78;71.70;100245.00;30620929;28;96893;-65
2023/03/20 09:11:39;;;;;;;19.05;14.25;;;;;;;10.79;71.66;100243.19;30619025;28;96689;-62
2023/03/20 09:26:39;;;;;;;17.23;13.30;;;;;;;11.00;71.02;100247.94;30622698;28;97421;-62
2023/03/20 09:41:46;;;;;;;16.30;11.60;;;;;;;11.55;70.43;100237.38;30618314;28;98534;-67
2023/03/20 09:56:48;;;;;;;15.50;10.63;;;;;;;11.90;70.56;100233.31;30612210;28;98242;-65
2023/03/20 10:12:28;;;;;;;17.43;11.57;;;;;;;12.98;68.82;100235.88;30603409;28;97885;-66
2023/03/20 10:27:36;;;;;;;13.27;9.17;;;;;;;16.00;65.08;100226.41;30676453;28;96822;-69
2023/03/20 10:42:40;;;;;;;11.40;8.97;;;;;;;18.89;60.11;100213.28;30624671;28;97722;-66
2023/03/20 10:57:47;;;;;;;11.83;7.20;;;;;;;21.32;52.43;100194.88;30609227;28;97418;-66
2023/03/20 11:12:49;;;;;;;12.13;6.73;;;;;;;24.01;44.15;100190.22;30602824;28;97352;-64
2023/03/20 11:27:49;;;;;;;6.80;4.30;;;;;;;24.87;39.45;100182.88;30617452;28;97142;-67
2023/03/20 11:42:56;;;;;;;7.75;5.28;;;;;;;22.51;40.59;100181.44;30618183;28;97026;-64
2023/03/20 11:57:58;;;;;;;9.43;7.83;;;;;;;21.19;41.22;100168.91;30626123;28;97350;-67
2023/03/20 12:13:09;;;;;;;12.67;7.53;;;;;;;26.00;35.94;100153.13;30630885;28;97396;-67
2023/03/20 12:28:17;;;;;;;7.27;6.53;;;;;;;32.96;26.49;100142.75;30619922;28;97621;-68
2023/03/20 12:43:24;;;;;;;6.50;5.90;;;;;;;41.47;17.83;100124.28;30740147;28;97637;-66
2023/03/20 12:58:31;;;;;;;7.30;5.57;;;;;;;39.94;17.96;100112.09;30743031;28;97557;-66
2023/03/20 13:13:31;;;;;;;5.50;4.60;;;;;;;38.64;16.10;100084.44;30743550;28;97896;-69
2023/03/20 13:28:49;;;;;;;8.55;5.28;;;;;;;29.61;24.18;100100.88;30647108;28;97575;-68
2023/03/20 13:43:53;;;;;;;2.90;1.70;;;;;;;29.97;24.30;100092.03;30592138;28;96860;-66
2023/03/20 13:59:03;;;;;;;2.30;1.27;;;;;;;33.63;19.06;100085.44;30488905;28;96872;-66
2023/03/20 14:14:45;;;;;;;4.83;2.33;;;;;;;24.07;28.30;100084.97;30482915;28;97136;-65
2023/03/20 14:29:45;;;;;;;4.67;4.03;;;;;;;20.02;35.66;100084.94;30485863;28;97723;-64
2023/03/20 14:44:48;;;;;;;13.00;5.93;;;;;;;17.94;41.77;100109.19;30529900;28;96764;-65
2023/03/20 14:59:49;;;;;;;5.77;4.73;;;;;;;17.93;42.50;100115.63;30665165;28;96577;-66
2023/03/20 15:14:55;;;;;;;2.83;1.88;;;;;;;16.49;43.22;100108.72;30676661;28;96810;-65
2023/03/20 15:29:56;;;;;;;4.43;2.30;;;;;;;15.49;45.05;100101.56;30665818;28;96932;-64
2023/03/20 15:44:57;;;;;;;5.22;2.58;;;;;;;14.77;46.98;100122.59;30679586;28;97985;-63
2023/03/20 15:59:57;;;;;;;4.85;2.50;;;;;;;14.04;49.09;100145.22;30676442;28;97807;-63
2023/03/20 16:14:59;;;;;;;3.23;2.13;;;;;;;13.23;51.08;100155.31;30620855;28;97941;-65
2023/03/20 16:30:07;;;;;;;4.83;1.90;;;;;;;12.63;53.49;100164.25;30615932;28;97375;-65
2023/03/20 16:45:28;;;;;;;4.63;2.53;;;;;;;12.22;55.44;100171.84;30615726;28;96825;-63
2023/03/20 17:00:41;;;;;;;4.90;3.47;;;;;;;11.92;57.19;100171.72;30607491;28;96835;-65
2023/03/20 17:15:41;;;;;;;4.70;3.20;;;;;;;11.68;58.88;100192.28;30605953;28;96686;-65
2023/03/20 17:30:42;;;;;;;5.60;4.15;;;;;;;11.48;60.20;100176.75;30604302;28;96840;-63
2023/03/20 17:45:46;;;;;;;6.80;4.33;;;;;;;11.31;60.72;100192.00;30602386;28;96843;-62
2023/03/20 18:00:48;;;;;;;6.70;4.07;;;;;;;11.11;61.80;100209.41;30606752;28;97028;-62
2023/03/20 18:15:53;;;;;;;9.17;5.20;;;;;;;11.00;63.40;100215.97;30608833;28;97327;-64
2023/03/20 18:30:54;;;;;;;8.80;5.47;;;;;;;10.88;64.44;100212.84;30606301;28;97244;-65
2023/03/20 18:45:55;;;;;;;16.90;6.78;;;;;;;10.85;65.41;100205.19;30610407;28;96698;-66
2023/03/20 19:00:59;;;;;;;8.63;5.68;;;;;;;10.78;65.47;100207.69;30607263;28;97516;-61
2023/03/20 19:15:59;;;;;;;10.37;5.97;;;;;;;10.75;66.19;100204.56;30589118;28;97109;-61
2023/03/20 19:30:59;;;;;;;10.55;6.47;;;;;;;10.66;66.37;100203.75;30606641;28;97258;-65
2023/03/20 19:46:00;;;;;;;8.95;5.63;;;;;;;10.62;67.35;100208.59;30605944;28;96830;-64
2023/03/20 20:01:00;;;;;;;11.25;6.85;;;;;;;10.56;68.11;100217.25;30616318;28;96836;-65
2023/03/20 20:16:01;;;;;;;12.85;7.50;;;;;;;10.49;68.73;100217.09;30625768;28;97001;-64
2023/03/20 20:31:01;;;;;;;14.52;9.20;;;;;;;10.42;69.23;100229.44;30625074;28;96698;-62
2023/03/20 20:46:02;;;;;;;17.05;9.93;;;;;;;10.28;69.07;100233.56;30621122;28;96757;-64
2023/03/20 21:01:03;;;;;;;18.33;10.10;;;;;;;10.08;69.95;100219.75;30620621;28;96727;-62
2023/03/20 21:16:04;;;;;;;18.77;10.82;;;;;;;9.97;70.62;100218.25;30618487;28;97418;-63
2023/03/20 21:31:05;;;;;;;20.00;11.63;;;;;;;9.88;70.85;100210.44;30618767;28;97365;-62
2023/03/20 21:46:05;;;;;;;23.20;12.57;;;;;;;9.80;71.25;100208.59;30614531;28;96840;-61
2023/03/20 22:01:06;;;;;;;21.52;11.98;;;;;;;9.71;71.37;100201.63;30615090;28;96983;-63
2023/03/20 22:16:09;;;;;;;21.15;11.40;;;;;;;9.59;72.07;100201.09;30611543;28;97213;-61
2023/03/20 22:31:14;;;;;;;23.37;11.47;;;;;;;9.49;72.03;100202.06;30613196;28;98272;-62
2023/03/20 22:46:15;;;;;;;29.20;15.53;;;;;;;9.24;72.53;100197.66;30611870;28;96713;-62
2023/03/20 23:01:16;;;;;;;26.02;13.38;;;;;;;8.93;72.95;100193.75;30611192;28;96757;-61
2023/03/20 23:16:16;;;;;;;26.40;14.17;;;;;;;8.78;73.81;100190.03;30609773;28;97103;-62
2023/03/20 23:31:21;;;;;;;31.40;14.73;;;;;;;8.62;74.82;100183.66;30611964;28;97130;-62
2023/03/20 23:46:21;;;;;;;38.50;20.47;;;;;;;8.52;75.48;100185.56;30627670;28;97123;-61
